Time;durP1;ratioP1;P1;durP2;ratioP2;P2;SDS_P1;SDS_P2;PMS_P1;PMS_P2;Temp;Humidity;BMP_temperature;BMP_pressure;BME280_temperature;BME280_humidity;BME280_pressure;Samples;Min_cycle;Max_cycle;Signal;HPM_P1;HPM_P2
2023/09/17 00:03:20;;;;;;;7.53;5.30;;;;;;;-145.68;100.00;73541.78;10448018;28;20598;-75
2023/09/17 00:08:20;;;;;;;13.18;5.45;;;;;;;-145.68;100.00;73547.75;10431574;28;20211;-75
2023/09/17 00:13:21;;;;;;;9.70;5.72;;;;;;;-145.68;100.00;73567.75;10452035;28;20205;-75
2023/09/17 00:18:22;;;;;;;9.30;5.28;;;;;;;-145.68;100.00;73567.75;10429881;28;20659;-75
2023/09/17 00:23:22;;;;;;;6.57;5.25;;;;;;;-145.68;100.00;73561.75;10429648;28;20663;-75
2023/09/17 00:28:22;;;;;;;6.03;5.38;;;;;;;-145.68;100.00;73561.75;10429365;28;20218;-75
2023/09/17 00:33:23;;;;;;;9.13;5.40;;;;;;;-145.68;100.00;73567.75;10433377;28;20188;-75
2023/09/17 00:38:23;;;;;;;6.95;5.45;;;;;;;-145.68;100.00;73559.75;10447017;28;20185;-75
2023/09/17 00:43:24;;;;;;;10.10;5.85;;;;;;;-145.68;100.00;73565.75;10446471;28;20191;-75
2023/09/17 00:48:26;;;;;;;6.20;5.35;;;;;;;-145.68;100.00;73559.75;10446698;28;20223;-75
2023/09/17 00:53:27;;;;;;;7.22;5.55;;;;;;;-145.68;100.00;73561.75;10432361;28;20227;-75
2023/09/17 00:58:29;;;;;;;6.78;4.75;;;;;;;-145.68;100.00;73555.75;10411743;28;20192;-75
2023/09/17 01:03:31;;;;;;;9.52;5.70;;;;;;;-145.68;100.00;73559.75;10444674;28;20235;-75
2023/09/17 01:08:31;;;;;;;6.25;5.20;;;;;;;-145.68;100.00;73551.75;10427422;28;20751;-75
2023/09/17 01:13:31;;;;;;;6.30;5.45;;;;;;;-145.68;100.00;73563.75;10449965;28;20200;-75
2023/09/17 01:18:33;;;;;;;6.80;5.38;;;;;;;-145.68;100.00;73565.75;10411861;28;20195;-75
2023/09/17 01:23:53;;;;;;;5.93;5.38;;;;;;;-145.68;100.00;73583.75;10410928;28;20662;-75
2023/09/17 01:28:54;;;;;;;7.68;6.07;;;;;;;-145.68;100.00;73597.75;10429627;28;20334;-75
2023/09/17 01:33:54;;;;;;;8.20;5.82;;;;;;;-145.68;100.00;73595.75;10429831;28;20203;-75
2023/09/17 01:39:04;;;;;;;8.20;6.38;;;;;;;-145.68;100.00;73603.72;10445645;28;20568;-75
2023/09/17 01:44:06;;;;;;;6.50;5.57;;;;;;;-145.68;100.00;73613.72;10411642;28;20195;-75
2023/09/17 01:49:10;;;;;;;7.47;5.88;;;;;;;-145.68;100.00;73619.72;10414942;28;20362;-75
2023/09/17 01:54:10;;;;;;;8.18;6.25;;;;;;;-145.68;100.00;73637.72;10445023;28;20212;-75
2023/09/17 01:59:12;;;;;;;7.97;6.00;;;;;;;-145.68;100.00;73629.72;10427433;28;20723;-75
2023/09/17 02:04:12;;;;;;;6.53;5.90;;;;;;;-145.68;100.00;73627.72;10427538;28;20206;-75
2023/09/17 02:09:13;;;;;;;6.70;6.00;;;;;;;-145.68;100.00;73645.72;10449215;28;20211;-75
2023/09/17 02:14:15;;;;;;;6.57;5.65;;;;;;;-145.68;100.00;73639.72;10441982;28;20551;-75
2023/09/17 02:19:15;;;;;;;8.35;5.47;;;;;;;-145.68;100.00;73645.72;10450556;28;20271;-75
2023/09/17 02:24:15;;;;;;;13.10;6.53;;;;;;;-145.68;100.00;73645.72;10451664;28;20192;-77
2023/09/17 02:35:39;;;;;;;9.07;6.22;;;;;;;-145.68;100.00;73659.69;10447329;28;20192;-75
2023/09/17 02:40:40;;;;;;;6.20;5.57;;;;;;;-145.68;100.00;73667.69;10450441;28;20591;-75
2023/09/17 02:45:40;;;;;;;7.47;5.90;;;;;;;-145.68;100.00;73659.69;10459924;28;20191;-75
2023/09/17 02:51:20;;;;;;;8.35;5.53;;;;;;;-145.68;100.00;73683.69;10465364;28;20242;-75
2023/09/17 02:56:20;;;;;;;9.88;7.20;;;;;;;-145.68;100.00;73687.69;10442329;28;20235;-74
2023/09/17 03:01:23;;;;;;;7.68;5.68;;;;;;;-145.68;100.00;73695.69;10454736;28;20553;-74
2023/09/17 03:06:23;;;;;;;7.75;6.13;;;;;;;-145.68;100.00;73691.69;10435741;28;20314;-74
2023/09/17 03:11:26;;;;;;;8.75;6.90;;;;;;;-145.68;100.00;73701.69;10431176;28;20191;-74
2023/09/17 03:16:29;;;;;;;6.38;5.78;;;;;;;-145.68;100.00;73701.69;10431348;28;20224;-74
2023/09/17 03:21:30;;;;;;;11.27;6.85;;;;;;;-145.68;100.00;73707.69;10431225;28;20269;-75
2023/09/17 03:26:31;;;;;;;9.57;7.22;;;;;;;-145.68;100.00;73711.66;10418795;28;20301;-75
2023/09/17 03:31:34;;;;;;;10.55;6.00;;;;;;;-145.68;100.00;73709.69;10430843;28;20199;-74
2023/09/17 03:36:35;;;;;;;10.45;6.40;;;;;;;-145.68;100.00;73709.69;10414295;28;20770;-75
2023/09/17 03:41:40;;;;;;;6.95;6.35;;;;;;;-145.68;100.00;73715.66;10449408;28;20198;-74
2023/09/17 03:46:40;;;;;;;7.18;6.47;;;;;;;-145.68;100.00;73733.66;10415593;28;20212;-74
2023/09/17 03:51:41;;;;;;;16.42;7.18;;;;;;;-145.68;100.00;73731.66;10431330;28;20569;-75
2023/09/17 03:56:42;;;;;;;8.38;6.10;;;;;;;-145.68;100.00;73737.66;10413788;28;20188;-75
2023/09/17 04:01:43;;;;;;;9.48;6.40;;;;;;;-145.68;100.00;73729.66;10430634;28;20538;-74
2023/09/17 04:06:44;;;;;;;7.22;5.97;;;;;;;-145.68;100.00;73729.66;10430050;28;20208;-74
2023/09/17 04:11:45;;;;;;;6.90;6.05;;;;;;;-145.68;100.00;73741.66;10448549;28;20686;-75
2023/09/17 04:16:45;;;;;;;9.77;6.25;;;;;;;-145.68;100.00;73735.66;10412946;28;20195;-74
2023/09/17 04:21:45;;;;;;;7.80;7.00;;;;;;;-145.68;100.00;73733.66;10430146;28;20198;-74
2023/09/17 04:26:46;;;;;;;8.98;6.90;;;;;;;-145.68;100.00;73747.66;10429598;28;20691;-74
2023/09/17 04:31:47;;;;;;;7.68;6.88;;;;;;;-145.68;100.00;73763.66;10429371;28;20200;-75
2023/09/17 04:36:48;;;;;;;8.52;6.55;;;;;;;-145.68;100.00;73759.66;10429015;28;20191;-74
2023/09/17 04:41:50;;;;;;;7.15;6.15;;;;;;;-145.68;100.00;73775.63;10428861;28;20198;-74
2023/09/17 04:46:50;;;;;;;7.22;6.35;;;;;;;-145.68;100.00;73763.66;10428186;28;20224;-74
2023/09/17 04:51:51;;;;;;;7.93;6.78;;;;;;;-145.68;100.00;73775.63;10429170;28;20180;-74
2023/09/17 04:56:51;;;;;;;7.55;6.82;;;;;;;-145.68;100.00;73773.63;10428553;28;20663;-74
2023/09/17 05:01:52;;;;;;;8.57;6.63;;;;;;;-145.68;100.00;73775.63;10428294;28;20180;-74
2023/09/17 05:06:52;;;;;;;7.75;6.60;;;;;;;-145.68;100.00;73775.63;10411740;28;20222;-74
2023/09/17 05:11:53;;;;;;;7.05;6.22;;;;;;;-145.68;100.00;73783.63;10427830;28;20206;-74
2023/09/17 05:16:53;;;;;;;7.85;6.03;;;;;;;-145.68;100.00;73771.63;10428314;28;20197;-74
2023/09/17 05:21:56;;;;;;;7.43;6.45;;;;;;;-145.68;100.00;73763.66;10428258;28;20203;-74
2023/09/17 05:26:56;;;;;;;7.57;6.60;;;;;;;-145.68;100.00;73755.66;10427699;28;20680;-74
2023/09/17 05:31:57;;;;;;;7.75;6.15;;;;;;;-145.68;100.00;73755.66;10428007;28;20191;-75
2023/09/17 05:36:57;;;;;;;7.47;6.25;;;;;;;-145.68;100.00;73753.66;10427236;28;20215;-74
2023/09/17 05:41:58;;;;;;;6.60;5.90;;;;;;;-145.68;100.00;73747.66;10428118;28;20195;-74
2023/09/17 05:46:58;;;;;;;8.50;6.43;;;;;;;-145.68;100.00;73735.66;10427328;28;20731;-74
2023/09/17 05:51:59;;;;;;;6.65;5.60;;;;;;;-145.68;100.00;73703.69;10430145;28;20191;-75
2023/09/17 05:57:00;;;;;;;7.22;5.82;;;;;;;-145.68;100.00;73657.69;10434877;28;20252;-74
2023/09/17 06:02:00;;;;;;;5.75;4.80;;;;;;;-145.68;100.00;73627.72;10435586;28;20657;-73
2023/09/17 06:07:01;;;;;;;6.00;5.38;;;;;;;-145.68;100.00;73555.75;10422395;28;20212;-73
2023/09/17 06:12:01;;;;;;;6.53;4.60;;;;;;;-145.68;100.00;73455.81;10434568;28;20184;-73
2023/09/17 06:17:02;;;;;;;5.78;4.70;;;;;;;-145.68;100.00;73481.81;10434606;28;20195;-73
2023/09/17 06:22:04;;;;;;;7.97;4.65;;;;;;;-145.68;100.00;73455.81;10434411;28;20222;-73
2023/09/17 06:27:05;;;;;;;6.03;4.60;;;;;;;-145.68;100.00;73445.81;10433658;28;20208;-73
2023/09/17 06:32:06;;;;;;;5.80;4.40;;;;;;;-145.68;96.88;73397.84;10434020;28;20199;-73
2023/09/17 06:37:06;;;;;;;7.57;4.88;;;;;;;-145.68;93.00;73373.88;10451818;28;20192;-73
2023/09/17 06:42:07;;;;;;;4.85;4.43;;;;;;;-145.68;92.55;73349.88;10451286;28;20203;-73
2023/09/17 06:47:07;;;;;;;5.43;4.35;;;;;;;-145.68;89.41;73267.94;10450944;28;20216;-73
2023/09/17 06:52:08;;;;;;;4.47;3.83;;;;;;;-145.68;82.30;73182.00;10432013;28;20266;-74
2023/09/17 06:57:09;;;;;;;5.18;4.18;;;;;;;-145.68;79.25;73158.00;10449697;28;20187;-74
2023/09/17 07:02:10;;;;;;;4.47;4.07;;;;;;;-145.68;77.75;73106.06;10450837;28;20192;-74
2023/09/17 07:07:10;;;;;;;4.32;3.63;;;;;;;-145.68;74.32;73028.09;10432513;28;20220;-74
2023/09/17 07:12:10;;;;;;;4.25;3.50;;;;;;;-145.68;72.51;72994.13;10450231;28;20647;-73
2023/09/17 07:17:11;;;;;;;4.35;3.90;;;;;;;-145.68;68.88;72858.22;10449473;28;20203;-74
2023/09/17 07:22:11;;;;;;;6.20;3.40;;;;;;;-145.68;66.70;72808.28;10432150;28;20207;-74
2023/09/17 07:27:13;;;;;;;6.38;3.53;;;;;;;-145.68;62.52;72710.34;10449566;28;20259;-74
2023/09/17 07:32:14;;;;;;;3.58;3.22;;;;;;;-145.68;59.39;72612.44;10449470;28;20219;-74
2023/09/17 07:37:14;;;;;;;3.30;3.00;;;;;;;-145.68;57.42;72568.47;10449146;28;20275;-74
2023/09/17 07:42:14;;;;;;;4.32;3.50;;;;;;;-145.68;57.80;72532.50;10449359;28;20191;-74
2023/09/17 07:47:16;;;;;;;7.72;3.33;;;;;;;-145.68;53.98;72320.69;10430838;28;20230;-74
2023/09/17 07:52:17;;;;;;;3.10;2.83;;;;;;;-145.68;51.78;72284.72;10431078;28;20193;-74
2023/09/17 07:57:17;;;;;;;2.83;2.63;;;;;;;-145.68;48.83;72134.84;10452400;28;20192;-74
2023/09/17 08:02:17;;;;;;;6.72;3.00;;;;;;;-145.68;45.46;72020.97;10452622;28;20202;-74
2023/09/17 08:07:18;;;;;;;3.40;2.90;;;;;;;-145.68;43.27;71995.00;10447724;28;20212;-74
2023/09/17 08:12:18;;;;;;;2.95;2.67;;;;;;;-145.68;42.48;71905.06;10448200;28;20188;-75
2023/09/17 08:17:19;;;;;;;4.72;2.60;;;;;;;-145.68;40.34;71861.13;10446972;28;20655;-75
2023/09/17 08:22:19;;;;;;;2.93;2.73;;;;;;;-145.68;39.15;71717.28;10429695;28;20188;-74
2023/09/17 08:27:19;;;;;;;2.60;2.40;;;;;;;-145.68;38.20;71713.28;10447151;28;20493;-74
2023/09/17 08:32:20;;;;;;;2.40;2.20;;;;;;;-145.68;39.71;71829.16;10429680;28;20494;-75
2023/09/17 08:37:20;;;;;;;9.00;8.23;;;;;;;-145.68;38.42;71769.22;10428576;28;20241;-75
2023/09/17 08:42:21;;;;;;;2.50;2.30;;;;;;;-145.68;37.81;71807.19;10447242;28;20183;-75
2023/09/17 08:47:22;;;;;;;2.70;2.05;;;;;;;-145.68;38.41;71817.16;10432751;28;20224;-75
2023/09/17 08:52:25;;;;;;;2.22;2.05;;;;;;;-145.68;37.57;71765.22;10428848;28;20202;-75
2023/09/17 08:57:26;;;;;;;2.80;2.17;;;;;;;-145.68;38.85;71809.16;10428452;28;20290;-74
2023/09/17 09:02:31;;;;;;;3.08;2.25;;;;;;;-145.68;37.68;71749.22;10428748;28;20192;-74
2023/09/17 09:07:32;;;;;;;3.00;2.30;;;;;;;-145.68;36.34;71631.34;10445961;28;20271;-74
2023/09/17 09:12:32;;;;;;;2.60;2.35;;;;;;;-145.68;37.76;71875.09;10428522;28;20636;-74
2023/09/17 09:17:32;;;;;;;2.20;2.00;;;;;;;-145.68;36.12;71599.41;10450611;28;20230;-75
2023/09/17 09:22:33;;;;;;;2.53;1.80;;;;;;;-145.68;34.83;71511.50;10427552;28;20192;-75
2023/09/17 09:27:33;;;;;;;2.25;2.08;;;;;;;-145.68;35.37;71715.28;10433266;28;20454;-74
2023/09/17 09:32:34;;;;;;;1.80;1.70;;;;;;;-145.68;33.13;71459.53;10458007;28;20196;-75
2023/09/17 09:37:35;;;;;;;1.98;1.58;;;;;;;-145.68;34.23;71705.28;10453902;28;20559;-75
2023/09/17 09:42:35;;;;;;;2.00;1.90;;;;;;;-145.68;36.30;71837.16;10453599;28;20282;-75
2023/09/17 09:47:37;;;;;;;2.30;2.10;;;;;;;-145.68;36.11;71965.00;10453519;28;20251;-74
2023/09/17 09:52:37;;;;;;;2.33;1.77;;;;;;;-145.68;33.46;71553.44;10452856;28;20192;-74
2023/09/17 09:57:38;;;;;;;2.13;1.77;;;;;;;-145.68;33.30;71585.41;10443189;28;20582;-75
2023/09/17 10:02:39;;;;;;;2.08;1.88;;;;;;;-145.68;33.15;71495.50;10434721;28;20874;-74
2023/09/17 10:07:40;;;;;;;3.53;2.22;;;;;;;-145.68;32.96;71497.50;10439250;28;20275;-75
2023/09/17 10:12:40;;;;;;;6.00;1.60;;;;;;;-145.68;31.44;71355.66;10435191;28;20663;-75
2023/09/17 10:17:41;;;;;;;2.20;2.03;;;;;;;-145.68;35.21;71823.16;10434420;28;20841;-75
2023/09/17 10:22:42;;;;;;;4.40;2.13;;;;;;;-145.68;34.45;71605.38;10434754;28;20192;-75
2023/09/17 10:27:43;;;;;;;2.50;2.30;;;;;;;-145.68;36.55;71681.31;10434117;28;20192;-74
2023/09/17 10:32:44;;;;;;;3.92;2.40;;;;;;;-145.68;34.63;71555.44;10451868;28;20195;-75
2023/09/17 10:37:46;;;;;;;3.63;2.17;;;;;;;-145.68;34.33;71491.50;10450935;28;20224;-75
2023/09/17 10:42:48;;;;;;;4.07;2.28;;;;;;;-145.68;35.14;71577.41;10433565;28;20211;-75
2023/09/17 10:47:50;;;;;;;4.70;2.22;;;;;;;-145.68;35.70;71689.31;10437147;28;20224;-75
2023/09/17 10:52:50;;;;;;;4.68;2.45;;;;;;;-145.68;37.24;71809.16;10451450;28;20245;-74
2023/09/17 10:57:58;;;;;;;3.10;2.80;;;;;;;-145.68;36.28;71707.28;10416912;28;20216;-75
2023/09/17 11:02:59;;;;;;;3.28;2.97;;;;;;;-145.68;39.55;71996.97;10416349;28;20199;-74
2023/09/17 11:08:02;;;;;;;4.05;3.00;;;;;;;-145.68;38.45;71867.13;10416421;28;20250;-74
2023/09/17 11:13:04;;;;;;;3.67;2.90;;;;;;;-145.68;37.79;71761.22;10432464;28;20176;-75
2023/09/17 11:18:07;;;;;;;3.58;3.28;;;;;;;-145.68;38.07;71817.16;10432210;28;20228;-75
2023/09/17 11:23:09;;;;;;;3.88;3.30;;;;;;;-145.68;38.78;71893.09;10431929;28;20447;-75
2023/09/17 11:28:14;;;;;;;5.82;2.78;;;;;;;-145.68;38.55;71913.06;10450497;28;20196;-74
2023/09/17 11:33:14;;;;;;;3.35;2.80;;;;;;;-145.68;37.38;71797.19;10446050;28;20200;-75
2023/09/17 11:38:15;;;;;;;3.55;2.65;;;;;;;-145.68;36.72;71739.25;10431487;28;20215;-74
2023/09/17 11:43:15;;;;;;;3.55;3.03;;;;;;;-145.68;37.16;71767.22;10431270;28;20230;-75
2023/09/17 11:48:16;;;;;;;3.10;2.80;;;;;;;-145.68;37.20;71805.19;10430283;28;20342;-75
2023/09/17 11:53:16;;;;;;;3.75;2.88;;;;;;;-145.68;37.62;71849.13;10448523;28;20200;-74
2023/09/17 11:58:19;;;;;;;3.10;2.80;;;;;;;-145.68;37.97;71943.03;10447752;28;20246;-75
2023/09/17 12:03:20;;;;;;;2.60;2.40;;;;;;;-145.68;37.10;71793.19;10448271;28;20535;-75
2023/09/17 12:08:21;;;;;;;4.25;2.50;;;;;;;-145.68;35.51;71607.38;10448362;28;20183;-75
2023/09/17 12:13:22;;;;;;;3.65;2.85;;;;;;;-145.68;32.93;71411.59;10447472;28;20198;-75
2023/09/17 12:18:24;;;;;;;2.70;2.50;;;;;;;-145.68;32.54;71379.63;10430168;28;20556;-75
2023/09/17 12:23:37;;;;;;;3.80;2.28;;;;;;;-145.68;33.05;71501.50;10429727;28;20191;-75
2023/09/17 12:28:37;;;;;;;3.35;3.03;;;;;;;-145.68;33.23;71457.56;10431195;28;20180;-74
2023/09/17 12:33:38;;;;;;;3.30;3.00;;;;;;;-145.68;33.83;71485.53;10447479;28;20215;-74
2023/09/17 12:38:38;;;;;;;4.85;2.90;;;;;;;-145.68;34.71;71539.47;10447111;28;20517;-74
2023/09/17 12:43:39;;;;;;;6.30;3.03;;;;;;;-145.68;36.38;71715.28;10444861;28;20188;-75
2023/09/17 12:48:40;;;;;;;3.83;2.78;;;;;;;-145.68;36.83;71789.19;10446671;28;20301;-74
2023/09/17 12:53:42;;;;;;;3.40;3.10;;;;;;;-145.68;35.90;71665.31;10432398;28;20195;-75
2023/09/17 12:58:42;;;;;;;5.47;3.03;;;;;;;-145.68;34.45;71491.50;10424451;28;20216;-74
2023/09/17 13:03:58;;;;;;;2.93;2.70;;;;;;;-145.68;32.30;71169.88;10445699;28;20569;-74
2023/09/17 13:09:02;;;;;;;4.28;2.85;;;;;;;-145.68;33.05;71401.63;10449151;28;20529;-75
2023/09/17 13:14:03;;;;;;;4.95;3.15;;;;;;;-145.68;33.76;71487.50;10428979;28;20666;-75
2023/09/17 13:19:03;;;;;;;3.65;2.58;;;;;;;-145.68;33.54;71369.66;10428557;28;20226;-74
2023/09/17 13:24:04;;;;;;;4.88;3.13;;;;;;;-145.68;32.01;71123.94;10427607;28;20198;-74
2023/09/17 13:29:04;;;;;;;4.10;2.80;;;;;;;-145.68;31.66;71173.88;10446107;28;20203;-75
2023/09/17 13:34:05;;;;;;;6.13;3.83;;;;;;;-145.68;34.32;71403.63;10411191;28;20203;-74
2023/09/17 13:39:11;;;;;;;4.35;3.35;;;;;;;-145.68;35.03;71587.41;10445800;28;20621;-74
2023/09/17 13:44:11;;;;;;;4.18;3.35;;;;;;;-145.68;35.13;71525.47;10427235;28;20192;-75
2023/09/17 13:49:12;;;;;;;4.00;3.60;;;;;;;-145.68;36.93;71689.31;10445327;28;20231;-75
2023/09/17 13:54:12;;;;;;;5.07;3.65;;;;;;;-145.68;34.46;71441.56;10427409;28;20473;-74
2023/09/17 13:59:13;;;;;;;4.43;2.87;;;;;;;-145.68;32.62;71119.94;10427305;28;20754;-75
2023/09/17 14:04:13;;;;;;;4.55;3.60;;;;;;;-145.68;33.21;71245.78;10427611;28;20438;-74
2023/09/17 14:09:13;;;;;;;8.40;3.67;;;;;;;-145.68;32.82;71289.75;10444704;28;20196;-74
2023/09/17 14:14:14;;;;;;;4.40;3.47;;;;;;;-145.68;31.27;71018.06;10448224;28;20199;-74
2023/09/17 14:19:17;;;;;;;4.33;2.90;;;;;;;-145.68;30.52;70888.22;10448505;28;20480;-75
2023/09/17 14:24:18;;;;;;;4.20;3.00;;;;;;;-145.68;32.84;71349.66;10446934;28;20441;-75
2023/09/17 14:29:18;;;;;;;6.10;3.40;;;;;;;-145.68;31.82;71137.91;10451708;28;20652;-74
2023/09/17 14:34:18;;;;;;;4.63;2.92;;;;;;;-145.68;33.52;71477.53;10448226;28;20199;-75
2023/09/17 14:39:19;;;;;;;3.22;2.92;;;;;;;-145.68;30.64;71050.03;10437660;28;20223;-75
2023/09/17 14:44:19;;;;;;;4.60;2.60;;;;;;;-145.68;28.55;70670.50;10449050;28;20203;-75
2023/09/17 14:49:20;;;;;;;5.47;3.10;;;;;;;-145.68;27.92;70638.53;10453103;28;21016;-75
2023/09/17 14:54:20;;;;;;;4.30;2.70;;;;;;;-145.68;27.29;70554.66;10449212;28;20575;-75
2023/09/17 14:59:21;;;;;;;2.88;2.55;;;;;;;-145.68;26.28;70311.00;10451165;28;20469;-75
2023/09/17 15:04:21;;;;;;;3.40;3.10;;;;;;;-145.68;26.21;70350.94;10450844;28;20195;-75
2023/09/17 15:09:21;;;;;;;2.90;2.30;;;;;;;-145.68;28.46;70824.31;10449828;28;20458;-74
2023/09/17 15:14:22;;;;;;;2.55;2.35;;;;;;;-145.68;29.13;70994.09;10450105;28;20192;-75
2023/09/17 15:19:22;;;;;;;3.92;2.55;;;;;;;-145.68;31.49;71305.72;10450387;28;20223;-75
2023/09/17 15:24:23;;;;;;;4.22;3.03;;;;;;;-145.68;31.62;71109.94;10445630;28;20194;-75
2023/09/17 15:29:24;;;;;;;5.05;4.57;;;;;;;-145.68;34.35;71393.63;10449732;28;20298;-74
2023/09/17 15:34:24;;;;;;;5.93;3.80;;;;;;;-145.68;35.81;71519.47;10449499;28;20184;-75
2023/09/17 15:39:25;;;;;;;7.90;4.13;;;;;;;-145.68;35.67;71525.47;10449314;28;20245;-75
2023/09/17 15:44:25;;;;;;;5.30;3.87;;;;;;;-145.68;35.87;71537.47;10429920;28;20199;-75
2023/09/17 15:49:26;;;;;;;5.97;3.70;;;;;;;-145.68;36.89;71623.38;10449085;28;20676;-74
2023/09/17 15:54:26;;;;;;;6.53;3.50;;;;;;;-145.68;37.68;71701.28;10448535;28;20188;-74
2023/09/17 15:59:27;;;;;;;7.28;3.85;;;;;;;-145.68;38.29;71795.19;10448441;28;20580;-74
2023/09/17 16:04:27;;;;;;;5.95;3.72;;;;;;;-145.68;38.62;71829.16;10428114;28;20203;-74
2023/09/17 16:09:28;;;;;;;5.40;4.03;;;;;;;-145.68;38.78;71881.09;10444983;28;20188;-74
2023/09/17 16:14:28;;;;;;;5.95;3.00;;;;;;;-145.68;40.45;72076.91;10430565;28;20196;-74
2023/09/17 16:19:29;;;;;;;5.18;3.08;;;;;;;-145.68;41.89;72184.81;10447520;28;20220;-73
2023/09/17 16:24:29;;;;;;;10.02;2.97;;;;;;;-145.68;42.42;72244.75;10451504;28;20192;-74
2023/09/17 16:29:30;;;;;;;5.63;3.22;;;;;;;-145.68;42.49;72244.75;10429766;28;20217;-74
2023/09/17 16:34:30;;;;;;;6.20;3.25;;;;;;;-145.68;42.75;72284.72;10428456;28;20245;-74
2023/09/17 16:39:31;;;;;;;7.13;3.22;;;;;;;-145.68;43.59;72328.69;10429422;28;20350;-74
2023/09/17 16:44:32;;;;;;;5.63;3.00;;;;;;;-145.68;43.83;72340.66;10450585;28;20254;-74
2023/09/17 16:49:32;;;;;;;4.05;3.05;;;;;;;-145.68;44.09;72340.66;10446665;28;20645;-74
2023/09/17 16:54:33;;;;;;;7.85;3.50;;;;;;;-145.68;45.84;72428.59;10432037;28;20192;-74
2023/09/17 16:59:33;;;;;;;7.60;3.58;;;;;;;-145.68;47.38;72488.53;10446855;28;20220;-74
2023/09/17 17:04:33;;;;;;;7.45;3.80;;;;;;;-145.68;49.23;72532.50;10449720;28;20202;-73
2023/09/17 17:09:34;;;;;;;4.68;3.58;;;;;;;-145.68;49.91;72534.50;10428493;28;20621;-74
2023/09/17 17:14:34;;;;;;;6.13;3.47;;;;;;;-145.68;50.79;72568.47;10446128;28;20219;-73
2023/09/17 17:19:35;;;;;;;3.72;3.30;;;;;;;-145.68;51.16;72556.47;10411217;28;20223;-74
2023/09/17 17:24:35;;;;;;;3.88;3.50;;;;;;;-145.68;52.08;72584.44;10449899;28;20615;-74
2023/09/17 17:29:35;;;;;;;6.18;3.40;;;;;;;-145.68;52.46;72590.44;10427879;28;20574;-73
2023/09/17 17:34:36;;;;;;;8.35;3.92;;;;;;;-145.68;53.44;72624.41;10445407;28;20188;-73
2023/09/17 17:39:36;;;;;;;3.55;3.25;;;;;;;-145.68;54.52;72662.38;10449303;28;20219;-74
2023/09/17 17:44:36;;;;;;;5.32;3.38;;;;;;;-145.68;55.31;72682.38;10445604;28;20219;-73
2023/09/17 17:49:37;;;;;;;6.55;4.00;;;;;;;-145.68;55.81;72712.34;10451836;28;20243;-73
2023/09/17 17:54:37;;;;;;;6.35;4.10;;;;;;;-145.68;56.28;72718.34;10453373;28;20184;-74
2023/09/17 17:59:37;;;;;;;4.85;3.70;;;;;;;-145.68;56.35;72724.34;10457043;28;20230;-74
2023/09/17 18:04:38;;;;;;;5.57;4.35;;;;;;;-145.68;56.63;72746.31;10452643;28;20188;-74
2023/09/17 18:09:38;;;;;;;4.85;4.28;;;;;;;-145.68;56.98;72766.31;10452746;28;20195;-73
2023/09/17 18:14:39;;;;;;;9.10;5.88;;;;;;;-145.68;57.98;72792.28;10434763;28;20191;-73
2023/09/17 18:19:39;;;;;;;5.90;3.65;;;;;;;-145.68;58.90;72826.25;10422318;28;20208;-73
2023/09/17 18:24:39;;;;;;;4.28;3.88;;;;;;;-145.68;59.10;72824.25;10438184;28;20200;-73
2023/09/17 18:29:44;;;;;;;6.05;4.47;;;;;;;-145.68;59.73;72844.25;10438398;28;20644;-73
2023/09/17 18:34:44;;;;;;;9.10;4.60;;;;;;;-145.68;60.59;72856.22;10448510;28;20192;-74
2023/09/17 18:39:44;;;;;;;5.25;4.75;;;;;;;-145.68;61.47;72880.22;10437732;28;20211;-73
2023/09/17 18:44:45;;;;;;;5.65;4.95;;;;;;;-145.68;62.50;72908.19;10433350;28;20190;-74
2023/09/17 18:49:47;;;;;;;5.05;4.32;;;;;;;-145.68;63.90;72940.16;10450961;28;20224;-73
2023/09/17 18:54:48;;;;;;;4.40;4.00;;;;;;;-145.68;64.57;72944.16;10418216;28;20582;-73
2023/09/17 18:59:50;;;;;;;5.78;4.80;;;;;;;-145.68;65.36;72976.16;10453054;28;20718;-74
2023/09/17 19:04:50;;;;;;;5.82;3.90;;;;;;;-145.68;63.34;72928.19;10450560;28;20211;-73
2023/09/17 19:09:50;;;;;;;6.68;4.40;;;;;;;-145.68;63.21;72938.16;10432780;28;20195;-73
2023/09/17 19:14:51;;;;;;;5.65;4.57;;;;;;;-145.68;63.32;72936.19;10436082;28;20604;-73
2023/09/17 19:19:51;;;;;;;20.83;17.65;;;;;;;-145.68;63.15;72940.16;10450389;28;20597;-73
2023/09/17 19:24:52;;;;;;;6.25;4.30;;;;;;;-145.68;63.78;72948.16;10431877;28;20192;-73
2023/09/17 19:29:52;;;;;;;8.52;3.95;;;;;;;-145.68;63.11;72950.16;10449706;28;20187;-73
2023/09/17 19:34:53;;;;;;;4.18;3.75;;;;;;;-145.68;62.74;72938.16;10453215;28;20690;-73
2023/09/17 19:39:53;;;;;;;4.25;3.85;;;;;;;-145.68;63.81;72964.16;10449684;28;20280;-73
2023/09/17 19:44:54;;;;;;;4.55;4.15;;;;;;;-145.68;63.81;72962.16;10448826;28;20656;-73
2023/09/17 19:49:58;;;;;;;5.68;3.65;;;;;;;-145.68;63.60;72958.16;10448828;28;20253;-73
2023/09/17 19:54:58;;;;;;;7.25;3.85;;;;;;;-145.68;63.67;72948.16;10452769;28;20740;-73
2023/09/17 19:59:59;;;;;;;5.18;3.80;;;;;;;-145.68;63.38;72942.16;10448333;28;20239;-73
2023/09/17 20:04:59;;;;;;;5.35;3.65;;;;;;;-145.68;63.26;72932.19;10448562;28;20210;-73
2023/09/17 20:10:01;;;;;;;4.07;3.42;;;;;;;-145.68;63.44;72926.19;10447600;28;20191;-73
2023/09/17 20:15:01;;;;;;;5.70;3.60;;;;;;;-145.68;63.51;72950.16;10450516;28;20192;-73
2023/09/17 20:20:02;;;;;;;5.70;4.20;;;;;;;-145.68;64.23;72956.16;10447199;28;20220;-73
2023/09/17 20:25:04;;;;;;;5.30;3.60;;;;;;;-145.68;65.17;72988.13;10450872;28;20683;-73
2023/09/17 20:30:08;;;;;;;3.95;3.47;;;;;;;-145.68;64.72;72972.16;10447676;28;20241;-73
2023/09/17 20:35:09;;;;;;;4.05;3.65;;;;;;;-145.68;64.28;72958.16;10447223;28;20520;-73
2023/09/17 20:40:09;;;;;;;3.53;3.22;;;;;;;-145.68;63.71;72946.16;10429008;28;20212;-73
2023/09/17 20:45:10;;;;;;;5.00;3.20;;;;;;;-145.68;62.56;72910.19;10446825;28;20206;-73
2023/09/17 20:50:11;;;;;;;6.40;3.05;;;;;;;-145.68;60.92;72856.22;10446578;28;20228;-73
2023/09/17 20:55:11;;;;;;;3.38;3.08;;;;;;;-145.68;60.53;72862.22;10446244;28;20655;-73
2023/09/17 21:00:12;;;;;;;6.53;3.13;;;;;;;-145.68;60.71;72866.22;10428483;28;20215;-73
2023/09/17 21:05:14;;;;;;;3.95;3.08;;;;;;;-145.68;59.10;72832.25;10445742;28;20707;-73
2023/09/17 21:10:15;;;;;;;4.35;2.80;;;;;;;-145.68;58.12;72814.28;10427947;28;20275;-73
2023/09/17 21:15:15;;;;;;;4.68;3.40;;;;;;;-145.68;56.86;72780.28;10445585;28;20196;-73
2023/09/17 21:20:18;;;;;;;7.53;3.28;;;;;;;-145.68;57.24;72784.28;10446653;28;20250;-73
2023/09/17 21:25:18;;;;;;;4.93;3.10;;;;;;;-145.68;58.27;72816.25;10459197;28;20551;-73
2023/09/17 21:30:19;;;;;;;4.88;3.03;;;;;;;-145.68;58.99;72832.25;10442027;28;20176;-73
2023/09/17 21:35:19;;;;;;;6.25;3.38;;;;;;;-145.68;60.44;72882.22;10459605;28;20194;-74
2023/09/17 21:40:20;;;;;;;3.40;2.90;;;;;;;-145.68;61.21;72888.22;10441151;28;20293;-74
2023/09/17 21:45:20;;;;;;;5.57;2.95;;;;;;;-145.68;62.25;72922.19;10441643;28;20199;-73
2023/09/17 21:50:20;;;;;;;3.60;2.97;;;;;;;-145.68;62.89;72900.19;10458998;28;20292;-73
2023/09/17 21:55:21;;;;;;;7.85;3.30;;;;;;;-145.68;62.88;72890.22;10459248;28;20196;-73
2023/09/17 22:00:23;;;;;;;3.67;3.38;;;;;;;-145.68;63.11;72896.19;10459058;28;20676;-73
2023/09/17 22:05:23;;;;;;;3.40;3.08;;;;;;;-145.68;64.33;72932.19;10441163;28;20192;-73
2023/09/17 22:10:24;;;;;;;3.90;3.50;;;;;;;-145.68;64.59;72918.19;10440835;28;20222;-73
2023/09/17 22:15:24;;;;;;;4.95;3.25;;;;;;;-145.68;64.50;72914.19;10458632;28;20202;-73
2023/09/17 22:20:24;;;;;;;4.03;3.30;;;;;;;-145.68;65.44;72940.16;10459040;28;20247;-73
2023/09/17 22:25:25;;;;;;;6.97;3.90;;;;;;;-145.68;64.82;72910.19;10440058;28;20555;-73
2023/09/17 22:30:25;;;;;;;4.00;3.40;;;;;;;-145.68;64.47;72894.22;10440700;28;20553;-73
2023/09/17 22:35:26;;;;;;;3.45;3.15;;;;;;;-145.68;63.48;72874.22;10452511;28;20660;-73
2023/09/17 22:40:26;;;;;;;6.47;3.40;;;;;;;-145.68;63.20;72888.22;10451417;28;20588;-73
2023/09/17 22:45:26;;;;;;;4.72;3.80;;;;;;;-145.68;63.01;72882.22;10433807;28;20211;-73
2023/09/17 22:50:27;;;;;;;4.78;3.08;;;;;;;-145.68;62.00;72840.25;10450738;28;20231;-73